sensor_id;sensor_type;location;lat;lon;timestamp;temperature;humidity
34522;DHT22;25561;48.888;8.736;2023-02-15T06:50:13;-1.40;99.90
34522;DHT22;25561;48.888;8.736;2023-02-15T06:53:15;-1.30;99.90
34522;DHT22;25561;48.888;8.736;2023-02-15T06:56:17;-1.00;99.90
34522;DHT22;25561;48.888;8.736;2023-02-15T06:59:19;-0.90;99.90
34522;DHT22;25561;48.888;8.736;2023-02-15T07:02:21;-0.60;99.90
34522;DHT22;25561;48.888;8.736;2023-02-15T07:05:26;-0.30;99.90
34522;DHT22;25561;48.888;8.736;2023-02-15T07:08:37;-0.50;99.90
34522;DHT22;25561;48.888;8.736;2023-02-15T07:11:42;-0.40;99.90
34522;DHT22;25561;48.888;8.736;2023-02-15T07:15:10;-0.20;99.90
34522;DHT22;25561;48.888;8.736;2023-02-15T07:18:20;-0.10;99.90
34522;DHT22;25561;48.888;8.736;2023-02-15T07:21:34;0.00;99.90
34522;DHT22;25561;48.888;8.736;2023-02-15T07:24:45;0.00;99.90
34522;DHT22;25561;48.888;8.736;2023-02-15T07:27:50;0.00;99.90
34522;DHT22;25561;48.888;8.736;2023-02-15T07:31:02;0.00;99.90
34522;DHT22;25561;48.888;8.736;2023-02-15T07:34:13;-0.10;99.90
34522;DHT22;25561;48.888;8.736;2023-02-15T07:37:22;0.00;99.90
34522;DHT22;25561;48.888;8.736;2023-02-15T07:40:28;0.20;99.90
34522;DHT22;25561;48.888;8.736;2023-02-15T07:43:36;0.40;99.90
34522;DHT22;25561;48.888;8.736;2023-02-15T07:46:49;0.30;99.90
34522;DHT22;25561;48.888;8.736;2023-02-15T07:49:56;0.40;99.90
34522;DHT22;25561;48.888;8.736;2023-02-15T07:53:06;0.50;99.90
34522;DHT22;25561;48.888;8.736;2023-02-15T07:56:15;0.60;99.90
34522;DHT22;25561;48.888;8.736;2023-02-15T07:59:18;0.70;99.90
34522;DHT22;25561;48.888;8.736;2023-02-15T08:02:21;0.80;99.90
34522;DHT22;25561;48.888;8.736;2023-02-15T08:05:28;0.50;99.90
34522;DHT22;25561;48.888;8.736;2023-02-15T08:08:38;0.10;99.90
34522;DHT22;25561;48.888;8.736;2023-02-15T08:11:47;0.20;99.90
34522;DHT22;25561;48.888;8.736;2023-02-15T08:14:50;0.60;99.90
34522;DHT22;25561;48.888;8.736;2023-02-15T08:17:52;0.70;99.90
34522;DHT22;25561;48.888;8.736;2023-02-15T08:21:00;0.80;99.90
34522;DHT22;25561;48.888;8.736;2023-02-15T08:24:03;0.90;99.90
34522;DHT22;25561;48.888;8.736;2023-02-15T08:27:08;1.00;99.90
34522;DHT22;25561;48.888;8.736;2023-02-15T08:30:11;1.10;99.90
34522;DHT22;25561;48.888;8.736;2023-02-15T08:33:13;1.00;99.90
34522;DHT22;25561;48.888;8.736;2023-02-15T08:36:18;1.00;99.90
34522;DHT22;25561;48.888;8.736;2023-02-15T08:39:20;1.10;99.90
34522;DHT22;25561;48.888;8.736;2023-02-15T08:42:23;0.90;99.90
34522;DHT22;25561;48.888;8.736;2023-02-15T08:45:26;1.10;99.90
34522;DHT22;25561;48.888;8.736;2023-02-15T08:48:28;1.50;99.90
34522;DHT22;25561;48.888;8.736;2023-02-15T08:51:33;1.40;99.90
34522;DHT22;25561;48.888;8.736;2023-02-15T08:54:35;1.30;99.90
34522;DHT22;25561;48.888;8.736;2023-02-15T08:57:37;1.70;99.90
34522;DHT22;25561;48.888;8.736;2023-02-15T09:00:40;2.00;99.90
34522;DHT22;25561;48.888;8.736;2023-02-15T09:03:44;2.20;99.90
34522;DHT22;25561;48.888;8.736;2023-02-15T09:06:48;2.40;99.90
34522;DHT22;25561;48.888;8.736;2023-02-15T09:09:52;2.50;99.90
34522;DHT22;25561;48.888;8.736;2023-02-15T09:12:55;2.60;99.90
34522;DHT22;25561;48.888;8.736;2023-02-15T09:16:01;2.80;99.90
34522;DHT22;25561;48.888;8.736;2023-02-15T09:19:09;3.20;99.90
34522;DHT22;25561;48.888;8.736;2023-02-15T09:22:13;3.00;99.90
34522;DHT22;25561;48.888;8.736;2023-02-15T09:25:17;2.90;99.90
34522;DHT22;25561;48.888;8.736;2023-02-15T09:28:23;2.90;99.90
34522;DHT22;25561;48.888;8.736;2023-02-15T09:31:36;3.30;99.90
34522;DHT22;25561;48.888;8.736;2023-02-15T09:34:41;3.40;99.90
34522;DHT22;25561;48.888;8.736;2023-02-15T09:37:45;3.10;99.90
34522;DHT22;25561;48.888;8.736;2023-02-15T09:41:03;3.30;99.90
34522;DHT22;25561;48.888;8.736;2023-02-15T09:51:27;4.20;99.90
34522;DHT22;25561;48.888;8.736;2023-02-15T10:01:44;5.50;99.90
34522;DHT22;25561;48.888;8.736;2023-02-15T10:05:26;5.50;99.90
34522;DHT22;25561;48.888;8.736;2023-02-15T10:12:11;4.90;99.90
34522;DHT22;25561;48.888;8.736;2023-02-15T10:19:00;3.90;99.90
34522;DHT22;25561;48.888;8.736;2023-02-15T10:29:25;2.80;99.90
34522;DHT22;25561;48.888;8.736;2023-02-15T10:32:32;2.80;99.90
34522;DHT22;25561;48.888;8.736;2023-02-15T10:42:47;3.00;99.90
34522;DHT22;25561;48.888;8.736;2023-02-15T11:03:32;3.60;99.90
34522;DHT22;25561;48.888;8.736;2023-02-15T11:06:44;3.60;99.90
34522;DHT22;25561;48.888;8.736;2023-02-15T11:13:29;4.00;99.90
34522;DHT22;25561;48.888;8.736;2023-02-15T11:16:40;4.20;99.90
34522;DHT22;25561;48.888;8.736;2023-02-15T11:23:27;4.00;99.90
34522;DHT22;25561;48.888;8.736;2023-02-15T11:33:05;4.10;99.90
34522;DHT22;25561;48.888;8.736;2023-02-15T11:36:13;4.50;99.90
34522;DHT22;25561;48.888;8.736;2023-02-15T11:39:19;4.60;99.90
34522;DHT22;25561;48.888;8.736;2023-02-15T11:42:24;4.50;99.90
34522;DHT22;25561;48.888;8.736;2023-02-15T11:45:31;4.80;99.90
34522;DHT22;25561;48.888;8.736;2023-02-15T11:48:34;5.40;99.90
34522;DHT22;25561;48.888;8.736;2023-02-15T11:51:36;5.70;99.90
34522;DHT22;25561;48.888;8.736;2023-02-15T11:54:43;5.40;99.90
34522;DHT22;25561;48.888;8.736;2023-02-15T11:57:54;5.50;99.90
34522;DHT22;25561;48.888;8.736;2023-02-15T12:01:16;5.30;99.90
34522;DHT22;25561;48.888;8.736;2023-02-15T12:04:30;5.70;99.90
34522;DHT22;25561;48.888;8.736;2023-02-15T12:07:37;5.80;99.90
34522;DHT22;25561;48.888;8.736;2023-02-15T12:14:13;5.60;99.90
34522;DHT22;25561;48.888;8.736;2023-02-15T12:17:21;5.50;99.90
34522;DHT22;25561;48.888;8.736;2023-02-15T12:20:29;5.50;99.90
34522;DHT22;25561;48.888;8.736;2023-02-15T12:23:33;5.40;99.90
34522;DHT22;25561;48.888;8.736;2023-02-15T12:26:37;5.50;99.90
34522;DHT22;25561;48.888;8.736;2023-02-15T12:29:50;5.40;99.90
34522;DHT22;25561;48.888;8.736;2023-02-15T12:36:31;5.40;99.90
34522;DHT22;25561;48.888;8.736;2023-02-15T12:39:33;5.90;99.90
34522;DHT22;25561;48.888;8.736;2023-02-15T12:42:43;6.00;99.90
34522;DHT22;25561;48.888;8.736;2023-02-15T12:45:46;5.80;99.90
34522;DHT22;25561;48.888;8.736;2023-02-15T12:49:18;5.90;99.90
34522;DHT22;25561;48.888;8.736;2023-02-15T12:52:26;6.00;99.90
34522;DHT22;25561;48.888;8.736;2023-02-15T12:55:32;6.10;99.90
34522;DHT22;25561;48.888;8.736;2023-02-15T12:58:36;5.90;99.90
34522;DHT22;25561;48.888;8.736;2023-02-15T13:01:41;5.60;99.90
34522;DHT22;25561;48.888;8.736;2023-02-15T13:04:49;5.70;99.90
34522;DHT22;25561;48.888;8.736;2023-02-15T13:08:12;5.70;99.90
34522;DHT22;25561;48.888;8.736;2023-02-15T13:11:31;5.70;99.90
34522;DHT22;25561;48.888;8.736;2023-02-15T13:14:37;5.70;99.90
34522;DHT22;25561;48.888;8.736;2023-02-15T13:17:39;5.70;99.90
34522;DHT22;25561;48.888;8.736;2023-02-15T13:20:42;5.60;99.90
34522;DHT22;25561;48.888;8.736;2023-02-15T13:23:51;5.70;99.90
34522;DHT22;25561;48.888;8.736;2023-02-15T13:26:55;5.70;99.90
34522;DHT22;25561;48.888;8.736;2023-02-15T13:33:29;5.80;99.90
34522;DHT22;25561;48.888;8.736;2023-02-15T13:36:54;5.80;99.90
34522;DHT22;25561;48.888;8.736;2023-02-15T13:43:56;5.90;99.90
34522;DHT22;25561;48.888;8.736;2023-02-15T14:00:47;6.20;99.90
34522;DHT22;25561;48.888;8.736;2023-02-15T14:07:54;6.50;99.90
34522;DHT22;25561;48.888;8.736;2023-02-15T14:11:04;6.60;99.90
34522;DHT22;25561;48.888;8.736;2023-02-15T14:14:31;6.80;99.90
34522;DHT22;25561;48.888;8.736;2023-02-15T14:18:07;6.90;99.90
34522;DHT22;25561;48.888;8.736;2023-02-15T14:21:25;6.90;99.90
34522;DHT22;25561;48.888;8.736;2023-02-15T14:27:56;6.90;99.90
34522;DHT22;25561;48.888;8.736;2023-02-15T14:30:59;6.90;99.90
34522;DHT22;25561;48.888;8.736;2023-02-15T14:34:02;6.80;99.90
34522;DHT22;25561;48.888;8.736;2023-02-15T14:37:05;6.70;99.90
34522;DHT22;25561;48.888;8.736;2023-02-15T14:40:39;6.60;99.90
34522;DHT22;25561;48.888;8.736;2023-02-15T14:44:15;6.50;99.90
34522;DHT22;25561;48.888;8.736;2023-02-15T14:47:28;6.60;99.90
34522;DHT22;25561;48.888;8.736;2023-02-15T14:53:39;6.50;99.90
34522;DHT22;25561;48.888;8.736;2023-02-15T14:57:20;6.50;99.90
34522;DHT22;25561;48.888;8.736;2023-02-15T15:00:31;6.50;99.90
34522;DHT22;25561;48.888;8.736;2023-02-15T15:03:35;6.60;99.90
34522;DHT22;25561;48.888;8.736;2023-02-15T15:06:40;6.60;99.90
34522;DHT22;25561;48.888;8.736;2023-02-15T15:09:43;6.70;99.90
34522;DHT22;25561;48.888;8.736;2023-02-15T15:12:49;6.70;99.90
34522;DHT22;25561;48.888;8.736;2023-02-15T15:15:53;6.80;99.90
34522;DHT22;25561;48.888;8.736;2023-02-15T15:18:55;6.80;99.90
34522;DHT22;25561;48.888;8.736;2023-02-15T15:22:03;6.90;99.90
34522;DHT22;25561;48.888;8.736;2023-02-15T15:31:47;6.80;99.90
34522;DHT22;25561;48.888;8.736;2023-02-15T15:35:00;6.70;99.90
34522;DHT22;25561;48.888;8.736;2023-02-15T15:38:44;6.70;99.90
34522;DHT22;25561;48.888;8.736;2023-02-15T15:42:31;6.60;99.90
34522;DHT22;25561;48.888;8.736;2023-02-15T15:45:54;6.60;99.90
34522;DHT22;25561;48.888;8.736;2023-02-15T15:49:05;6.60;99.90
34522;DHT22;25561;48.888;8.736;2023-02-15T15:52:18;6.50;99.90
34522;DHT22;25561;48.888;8.736;2023-02-15T15:55:23;6.60;99.90
34522;DHT22;25561;48.888;8.736;2023-02-15T15:58:25;6.60;99.90
34522;DHT22;25561;48.888;8.736;2023-02-15T16:01:29;6.50;99.90
34522;DHT22;25561;48.888;8.736;2023-02-15T16:04:33;6.50;99.90
34522;DHT22;25561;48.888;8.736;2023-02-15T16:07:35;6.40;99.90
34522;DHT22;25561;48.888;8.736;2023-02-15T16:10:37;6.40;99.90
34522;DHT22;25561;48.888;8.736;2023-02-15T16:13:41;6.40;99.90
34522;DHT22;25561;48.888;8.736;2023-02-15T16:16:48;6.30;99.90
34522;DHT22;25561;48.888;8.736;2023-02-15T16:19:53;6.30;99.90
34522;DHT22;25561;48.888;8.736;2023-02-15T16:29:52;6.10;99.90
34522;DHT22;25561;48.888;8.736;2023-02-15T16:33:14;6.00;99.90
34522;DHT22;25561;48.888;8.736;2023-02-15T16:36:28;5.70;99.90
34522;DHT22;25561;48.888;8.736;2023-02-15T16:39:32;5.70;99.90
34522;DHT22;25561;48.888;8.736;2023-02-15T16:42:41;5.60;99.90
34522;DHT22;25561;48.888;8.736;2023-02-15T16:45:43;5.40;99.90
34522;DHT22;25561;48.888;8.736;2023-02-15T16:48:47;5.40;99.90
34522;DHT22;25561;48.888;8.736;2023-02-15T16:52:04;5.30;99.90
34522;DHT22;25561;48.888;8.736;2023-02-15T16:55:18;5.20;99.90
34522;DHT22;25561;48.888;8.736;2023-02-15T16:58:29;5.10;99.90
